Huntly, Virginia
Current Conditions -  °F | °C
As of 3:35 AM on Monday 24 Nov 2014 (Local Time) from KFRR Reporting Station
Broken Clouds Broken Clouds  
Wind Chill: 54°   Ceiling: 4600
Heat Index: 54°   Visibility: 10mi
Dew Point: 54°   Wind: 3mph
Humidity: 100%   Direction: 190°S
Pressure: 29.6"   Gusts: NA
Location:  38.83°N, 78.11°W
Report Text: KFRR 240835Z AUTO 19003KT 10SM SCT035 BKN046 12/12 A2960 RMK AO1
Loading
Personal Weather Stations






























Interactive Weather Map New forecast layout! Learn more

10-Day Weather Forecast

Advertisements
Track Severe Weather on mobile